Hovedside
METAR-TAF:

METAR-TAF

Lufthavner :

Vadsø lufthavn

Vadsø, Norge

breddegrad: 70-04N, lengdegrad: 029-51E, høyde over havet: 3 m

Gjeldene værobservasjon

Denne rapporten ble laget for 59 minutter siden, klokken 10:50 UTC
Vind 11 kt fra Vest
Temperatur 12°C
Luftfuktighet 67%
Trykk 1012 hPa
Sikt 10 km eller mer
Spredte skyer i en høyde av 3500 ft
Brutte skyer i en høyde av 5000 ft
regnbyger i nærheten

METAR: ENVD 191050Z 27011KT 9999 VCSH SCT035 BKN050 12/06 Q1012

Tid: 13:49 (11:49 UTC)

Varsel

Denne rapporten ble laget for 3 timer og 49 minutter siden, klokken 08:00 UTC
Varsel gyldig fra 19. klokken 10 UTC til 19. klokken 14 UTC
Vind 8 kt fra Vest
Sikt 10 km eller mer
Få skyer i en høyde av 1500 ft
Brutte skyer i en høyde av 4000 ft
lette regnbyger

TAF: ENVD 190800Z 1910/1914 27008KT 9999 -SHRA FEW015 BKN040

Værobservasjoner og værvarsel for over 4000 flyplasser (METAR- og TAF-rapporter).

Tilgjengelige stasjoner er representert av de røde og gule prikkene på kartet.

Hold musepekeren over prikken for å se navnet på stasjonen.

Klikk så for å se værobservasjoner og -varsler.

For å forandre kartet kan du klikke på den grønne knappen med svart kryss for å zoome inn, på den grønne knappen med strek for å zoome ut, eller på de grønne pilene for å se tilstøtende kart.


METAR-TAF: